5°C
Gosport, Hampshire, United Kingdom
Language:  English
Updated14/12/2018 21:50:00 
 

Nearby METAR Reports

 

EGHI - Southampton Wx Centre, United Kingdom
Distance from station: NW 15mi, 24km
Updated: 14-Dec-2018 21:20:00
Overcast
Overcast
 Wind from E
Wind: E 10 mph , 17 km/h
Temperature: 2°C
Wind Chill: -2°C
Dew Point: -3°C
Humidity: 70%
Barometer: 1021 hPa
Clouds: Overcast
Visibility: 6 miles , 10 km
Cloud details: Overcast 1341 m
2018/12/14 21:20 EGHI 142120Z 09009KT 9999 OVC044 02/M03 Q1021
EGHH - Bournemouth Airport, United Kingdom
Distance from station: W 30mi, 49km
Updated: 14-Dec-2018 21:20:00
Overcast
Overcast
 Wind from ESE
Wind: ESE 10 mph , 17 km/h
Temperature: 4°C
Wind Chill: 0°C
Dew Point: -2°C
Humidity: 65%
Barometer: 1021 hPa
Clouds: Overcast
Visibility: 6 miles , 10 km
Cloud details: Overcast 853 m
2018/12/14 21:20 EGHH 142120Z 11009KT 9999 OVC028 04/M02 Q1021
EGVP - Middle Wallop Airfield, United Kingdom
Distance from station: NW 31mi, 49km
Updated: 14-Dec-2018 20:50:00
Mostly cloudy
Mostly cloudy
 Wind from E
Wind: E 10 mph , 17 km/h
Temperature: 1°C
Wind Chill: -3°C
Dew Point: -2°C
Humidity: 81%
Barometer: 1021 hPa
Clouds: Mostly cloudy
Visibility: 6 miles , 10 km
Cloud details: Mostly cloudy 1250 m
2018/12/14 20:50 EGVP 142050Z AUTO 10009KT 9999 // BKN041/// 01/M02 Q1021
 
EGVO - RAF Odiham, United Kingdom
Distance from station: NNE 32mi, 52km
Updated: 14-Dec-2018 20:50:00
Haze, Mostly cloudy
Haze, Mostly cloudy
 Wind from ESE
Wind: ESE 6 mph , 9 km/h
Temperature: -2°C
Wind Chill: -6°C
Dew Point: -4°C
Humidity: 86%
Barometer: 1022 hPa
Summary: Haze
Clouds: Mostly cloudy
Visibility: 5 miles , 8 km
Cloud details: Mostly cloudy 1219 m
2018/12/14 20:50 EGVO 142050Z AUTO 12005KT 8000 HZ BKN040/// M02/M04 Q1022
EGKA - Shoreham Airport, United Kingdom
Distance from station: E 37mi, 59km
Updated: 14-Dec-2018 19:50:00
NOT Current
Mostly cloudy
Mostly cloudy
 Wind from ENE
Wind: ENE 8 mph , 13 km/h
Temperature: 2°C
Wind Chill: -1°C
Dew Point: -2°C
Humidity: 75%
Barometer: 1023 hPa
Clouds: Mostly cloudy
Visibility: 6 miles , 10 km
Cloud details: Mostly cloudy 975 m
2018/12/14 19:50 EGKA 141950Z 07007KT 9999 BKN032 02/M02 Q1023
EGDM - Boscombe Down, United Kingdom
Distance from station: NW 38mi, 61km
Updated: 14-Dec-2018 20:50:00
Overcast
Overcast
 Wind from ESE
Wind: ESE 13 mph , 20 km/h
Temperature: 1°C
Wind Chill: -4°C
Dew Point: -2°C
Humidity: 81%
Barometer: 1021 hPa
Clouds: Overcast
Visibility: 6 miles , 10 km
Cloud details: Overcast 1158 m
2018/12/14 20:50 EGDM 142050Z AUTO 11011KT 9999 OVC038/// 01/M02 Q1021
 
EGLF - Farnborough, United Kingdom
Distance from station: NNE 38mi, 61km
Updated: 14-Dec-2018 21:20:00
Mostly cloudy
Mostly cloudy
 Wind from E
Wind: E 6 mph , 9 km/h
Temperature: -2°C
Wind Chill: -6°C
Dew Point: -4°C
Humidity: 86%
Barometer: 1023 hPa
Clouds: Mostly cloudy
Visibility: 6 miles , 10 km
Cloud details: Mostly cloudy 1280 m
2018/12/14 21:20 EGLF 142120Z 09005KT 9999 BKN042 M02/M04 Q1023
EGKK - Gatwick Airport, United Kingdom
Distance from station: ENE 49mi, 78km
Updated: 14-Dec-2018 21:20:00
Mostly cloudy
Mostly cloudy
 Wind from ESE
Wind: ESE 6 mph , 9 km/h
Temperature: 1°C
Wind Chill: -2°C
Dew Point: -2°C
Humidity: 81%
Barometer: 1023 hPa
Clouds: Mostly cloudy
Visibility: 6 miles , 10 km
Cloud details: Mostly cloudy 1158 m
2018/12/14 21:20 EGKK 142120Z 11005KT 9999 BKN038 01/M02 Q1023
EGLL - Heathrow Airport, United Kingdom
Distance from station: NNE 57mi, 91km
Updated: 14-Dec-2018 21:20:00
Overcast
Overcast
 Wind from SSE
Wind: SSE 7 mph , 11 km/h
Temperature: 2°C
Wind Chill: -1°C
Dew Point: -2°C
Humidity: 75%
Barometer: 1024 hPa
Clouds: Overcast
Visibility: 6 miles , 10 km
Cloud details: Overcast 1311 m
2018/12/14 21:20 EGLL 142120Z AUTO 16006KT 9999 OVC043 02/M02 Q1024 NOSIG
 
EGUB - RAF Benson, United Kingdom
Distance from station: N 58mi, 93km
Updated: 14-Dec-2018 20:50:00
Mostly cloudy
Mostly cloudy
 Wind from ESE
Wind: ESE 6 mph , 9 km/h
Temperature: -1°C
Wind Chill: -4°C
Dew Point: -3°C
Humidity: 86%
Barometer: 1023 hPa
Clouds: Mostly cloudy
Visibility: 6 miles , 9 km
Cloud details: Mostly cloudy 1219 m
2018/12/14 20:50 EGUB 142050Z AUTO 12005KT 9000 // BKN040/// M01/M03 Q1023
EGWU - RAF Northolt, United Kingdom
Distance from station: NNE 62mi, 99km
Updated: 14-Dec-2018 20:50:00
Overcast
Overcast
 Wind from SSE
Wind: SSE 6 mph , 9 km/h
Temperature: 3°C
Wind Chill: 0°C
Dew Point: -3°C
Humidity: 65%
Barometer: 1023 hPa
Clouds: Overcast
Visibility: 6 miles , 10 km
Cloud details: Overcast 1341 m
2018/12/14 20:50 EGWU 142050Z AUTO 16005KT 9999 // OVC044/// 03/M03 Q1023
EGKB - Biggin Hill Airport, United Kingdom
Distance from station: NE 62mi, 100km
Updated: 14-Dec-2018 21:20:00
Mostly cloudy
Mostly cloudy
 Wind from SSE
Wind: SSE 10 mph , 17 km/h
Temperature: 1°C
Wind Chill: -3°C
Dew Point: -4°C
Humidity: 70%
Barometer: 1023 hPa
Clouds: Mostly cloudy
Visibility: 6 miles , 10 km
Cloud details: Mostly cloudy 1036 m
2018/12/14 21:20 EGKB 142120Z 15009KT 9999 BKN034 01/M04 Q1023
 
EGDY - RNAS Yeovilton, United Kingdom
Distance from station: WNW 66mi, 107km
Updated: 14-Dec-2018 20:50:00
Mostly cloudy
Mostly cloudy
 Wind from ESE
Wind: ESE 9 mph , 15 km/h
Temperature: 4°C
Wind Chill: 1°C
Dew Point: 0°C
Humidity: 75%
Barometer: 1020 hPa
Clouds: Mostly cloudy
Visibility: 6 miles , 10 km
Cloud details: Mostly cloudy 884 m
Mostly cloudy 1829 m
2018/12/14 20:50 EGDY 142050Z AUTO 11008KT 9999 // BKN029/// BKN060/// 04/M00 Q1020
EGUO - Colerne Airfield, United Kingdom
Distance from station: NW 67mi, 108km
Updated: 21-Mar-2018 08:50:00
NOT Current
Clear
Clear
 Wind from W
Wind: W 6 mph , 9 km/h
Temperature: 5°C
Wind Chill: 3°C
Dew Point: 1°C
Humidity: 76%
Barometer: 1032 hPa
Clouds: Clear
Visibility: 6 miles , 10 km
2018/03/21 08:50 EGUO 210850Z 27005KT 9999 NCD 05/01 Q1032 BLU NOSIG
EGVA - RAF Fairford, United Kingdom
Distance from station: NNW 67mi, 108km
Updated: 14-Dec-2018 21:46:00
Haze, Mostly cloudy
Haze, Mostly cloudy
 Wind from ESE
Wind: ESE 12 mph , 19 km/h
Summary: Haze
Clouds: Mostly cloudy
Visibility: 6 miles , 9 km
Cloud details: Mostly cloudy 1311 m
2018/12/14 21:46 EGVA 142146Z AUTO 12010KT 9000 HZ BKN043 M A3016 RMK AO2 SLPNO ALSTG ESTMD $
 
EGVN - RAF Brize Norton, United Kingdom
Distance from station: NNW 71mi, 114km
Updated: 14-Dec-2018 20:50:00
Haze, Few clouds
Haze, Few clouds
 Wind from ESE
Wind: ESE 6 mph , 9 km/h
Temperature: -1°C
Wind Chill: -4°C
Dew Point: -2°C
Humidity: 93%
Barometer: 1022 hPa
Summary: Haze
Clouds: Few Clouds
Visibility: 5 miles , 8 km
Cloud details: Few Clouds 1219 m
2018/12/14 20:50 EGVN 142050Z 12005KT 8000 HZ FEW040 M01/M02 Q1022 BLU NOSIG
EGLC - London City Airport, United Kingdom
Distance from station: NE 71mi, 115km
Updated: 14-Dec-2018 21:20:00
Overcast
Overcast
 Wind from SSE
Wind: SSE 6 mph , 9 km/h
Temperature: 3°C
Wind Chill: 0°C
Dew Point: -3°C
Humidity: 65%
Barometer: 1024 hPa
Clouds: Overcast
Visibility: 6 miles , 10 km
Cloud details: Overcast 1311 m
2018/12/14 21:20 EGLC 142120Z AUTO 16005KT 9999 OVC043 03/M03 Q1024
EGGD - Bristol Airport, United Kingdom
Distance from station: WNW 80mi, 128km
Updated: 14-Dec-2018 21:20:00
Mostly cloudy
Mostly cloudy
 Wind from ESE
Wind: ESE 14 mph , 22 km/h
Temperature: 2°C
Wind Chill: -3°C
Dew Point: -1°C
Humidity: 81%
Barometer: 1019 hPa
Clouds: Mostly cloudy
Visibility: 6 miles , 10 km
Cloud details: Mostly cloudy 701 m
2018/12/14 21:20 EGGD 142120Z AUTO 12012KT 9999 BKN023 02/M01 Q1019
 
LFRC - Cherbourg-Maupertus Airport, France
Distance from station: S 81mi, 130km
Updated: 14-Dec-2018 21:30:00
Partly cloudy
Partly cloudy
 Wind from SSE
Wind: SSE 15 mph , 24 km/h
Temperature: 0°C
Wind Chill: -6°C
Dew Point: -4°C
Humidity: 75%
Barometer: 1021 hPa
Clouds: Partly cloudy
Visibility: 5 miles , 8 km
2018/12/14 21:30 LFRC 142130Z AUTO 15013KT 8000 NSC 00/M04 Q1021
EGGW - Luton Airport, United Kingdom
Distance from station: NNE 82mi, 132km
Updated: 14-Dec-2018 21:20:00
Overcast
Overcast
 Wind from varies
Wind: varies 3 mph , 6 km/h
Temperature: 1°C
Dew Point: -1°C
Humidity: 87%
Barometer: 1023 hPa
Clouds: Overcast
Visibility: 6 miles , 10 km
Cloud details: Partly cloudy 701 m
Overcast 945 m
2018/12/14 21:20 EGGW 142120Z AUTO VRB03KT 9999 SCT023 OVC031 01/M01 Q1023